createdAt,value
2023-02-13T00:00:46.043Z,92.57
2023-02-13T00:03:13.188Z,95.78
2023-02-13T00:05:39.972Z,93.72
2023-02-13T00:08:06.842Z,92.55
2023-02-13T00:10:33.680Z,91.07
2023-02-13T00:13:00.508Z,92.03
2023-02-13T00:15:27.521Z,92.53
2023-02-13T00:17:54.391Z,94.25
2023-02-13T00:20:21.391Z,95.65
2023-02-13T00:22:48.309Z,92.18
2023-02-13T00:25:15.222Z,95.57
2023-02-13T00:27:42.161Z,97.75
2023-02-13T00:30:09.734Z,95.68
2023-02-13T00:32:36.576Z,94.85
2023-02-13T00:35:03.490Z,101.68
2023-02-13T00:37:30.376Z,97.90
2023-02-13T00:39:58.068Z,99.35
2023-02-13T00:42:26.732Z,99.88
2023-02-13T00:44:54.344Z,96.82
2023-02-13T00:47:21.916Z,96.90
2023-02-13T00:49:48.863Z,96.07
2023-02-13T00:52:15.896Z,97.00
2023-02-13T00:54:42.967Z,95.03
2023-02-13T00:57:09.756Z,95.15
2023-02-13T00:59:36.575Z,95.22
2023-02-13T01:02:03.893Z,94.70
2023-02-13T01:04:30.826Z,93.07
2023-02-13T01:06:58.014Z,91.78
2023-02-13T01:09:25.744Z,93.53
2023-02-13T01:11:52.631Z,91.35
2023-02-13T01:14:19.634Z,90.10
2023-02-13T01:16:46.734Z,89.20
2023-02-13T01:19:13.571Z,88.68
2023-02-13T01:21:40.518Z,84.43
2023-02-13T01:24:07.849Z,87.35
2023-02-13T01:26:34.871Z,83.80
2023-02-13T01:29:02.006Z,85.45
2023-02-13T01:31:28.992Z,84.65
2023-02-13T01:33:59.781Z,84.95
2023-02-13T01:36:27.455Z,87.82
2023-02-13T01:38:57.474Z,84.22
2023-02-13T01:41:25.904Z,86.70
2023-02-13T01:43:58.381Z,87.30
2023-02-13T01:46:33.852Z,84.47
2023-02-13T01:49:26.263Z,83.90
2023-02-13T01:51:56.225Z,79.28
2023-02-13T01:54:31.374Z,83.05
2023-02-13T01:57:22.377Z,83.88
2023-02-13T02:03:01.345Z,79.70
2023-02-13T02:05:31.093Z,81.43
2023-02-13T02:08:00.673Z,82.90
2023-02-13T02:10:28.294Z,80.43
2023-02-13T02:13:10.192Z,71.28
2023-02-13T02:15:38.102Z,77.97
2023-02-13T02:18:25.348Z,72.18
2023-02-13T02:21:10.337Z,70.97
2023-02-13T02:24:20.760Z,70.13
2023-02-13T02:27:12.793Z,70.65
2023-02-13T02:30:17.429Z,72.25
2023-02-13T02:33:18.292Z,73.30
2023-02-13T02:35:54.341Z,70.15
2023-02-13T02:38:58.460Z,68.88
2023-02-13T02:41:42.855Z,66.95
2023-02-13T02:44:24.823Z,68.65
2023-02-13T02:47:34.489Z,70.30
2023-02-13T02:50:20.466Z,68.28
2023-02-13T02:53:22.566Z,65.60
2023-02-13T02:55:59.255Z,67.97
2023-02-13T02:58:56.171Z,68.50
2023-02-13T03:01:46.441Z,68.22
2023-02-13T03:04:47.114Z,68.53
2023-02-13T03:07:17.313Z,69.00
2023-02-13T03:10:08.215Z,66.45
2023-02-13T03:13:11.556Z,65.07
2023-02-13T03:16:00.428Z,66.07
2023-02-13T03:18:48.084Z,66.00
2023-02-13T03:21:44.636Z,65.13
2023-02-13T03:24:17.104Z,68.17
2023-02-13T03:27:41.618Z,67.90
2023-02-13T03:30:28.336Z,64.13
2023-02-13T03:33:04.014Z,62.97
2023-02-13T03:35:56.307Z,59.08
2023-02-13T03:38:30.587Z,61.50
2023-02-13T03:41:18.663Z,58.47
2023-02-13T03:44:00.316Z,61.38
2023-02-13T03:46:31.554Z,61.38
2023-02-13T03:49:18.367Z,64.28
2023-02-13T03:52:00.128Z,63.17
2023-02-13T03:54:51.763Z,64.00
2023-02-13T03:57:39.687Z,61.97
2023-02-13T04:00:14.025Z,62.20
2023-02-13T04:02:51.245Z,61.92
2023-02-13T04:05:24.802Z,63.47
2023-02-13T04:07:51.734Z,64.43
2023-02-13T04:10:20.133Z,64.57
2023-02-13T04:12:52.873Z,62.83
2023-02-13T04:15:31.693Z,61.72
2023-02-13T04:18:23.762Z,64.78
2023-02-13T04:20:50.874Z,61.42
2023-02-13T04:23:17.652Z,65.90
2023-02-13T04:25:48.850Z,65.03
2023-02-13T04:28:15.752Z,64.28
2023-02-13T04:30:43.024Z,64.22
2023-02-13T04:33:09.860Z,61.38
2023-02-13T04:35:36.846Z,62.65
2023-02-13T04:38:04.052Z,65.43
2023-02-13T04:40:30.865Z,59.10
2023-02-13T04:42:57.739Z,62.05
2023-02-13T04:45:24.776Z,63.53
2023-02-13T04:47:53.168Z,61.47
2023-02-13T04:50:20.226Z,61.95
2023-02-13T04:52:47.397Z,62.00
2023-02-13T04:55:14.608Z,64.47
2023-02-13T04:57:41.550Z,60.78
2023-02-13T05:00:09.149Z,59.67
2023-02-13T05:02:37.342Z,59.00
2023-02-13T05:05:05.813Z,58.80
2023-02-13T05:07:32.683Z,56.15
2023-02-13T05:09:59.536Z,57.78
2023-02-13T05:12:26.519Z,57.50
2023-02-13T05:14:53.560Z,57.30
2023-02-13T05:17:20.407Z,58.88
2023-02-13T05:19:47.265Z,58.00
2023-02-13T05:22:32.529Z,60.05
2023-02-13T05:24:59.407Z,63.88
2023-02-13T05:27:26.234Z,59.58
2023-02-13T05:29:53.116Z,63.30
2023-02-13T05:32:20.016Z,62.65
2023-02-13T05:35:05.231Z,60.72
2023-02-13T05:37:32.336Z,60.00
2023-02-13T05:39:59.142Z,63.97
2023-02-13T05:42:26.427Z,63.30
2023-02-13T05:44:53.270Z,65.00
2023-02-13T05:47:20.066Z,64.43
2023-02-13T05:49:46.869Z,62.78
2023-02-13T05:52:13.753Z,60.25
2023-02-13T05:54:40.627Z,64.25
2023-02-13T05:57:07.408Z,60.28
2023-02-13T05:59:34.272Z,61.55
2023-02-13T06:02:01.204Z,62.60
2023-02-13T06:04:28.052Z,61.50
2023-02-13T06:06:54.947Z,58.80
2023-02-13T06:09:22.020Z,60.03
2023-02-13T06:11:48.920Z,62.53
2023-02-13T06:14:15.933Z,62.50
2023-02-13T06:16:42.861Z,62.15
2023-02-13T06:19:09.696Z,65.43
2023-02-13T06:21:38.201Z,61.97
2023-02-13T06:24:07.057Z,68.53
2023-02-13T06:26:34.520Z,68.55
2023-02-13T06:29:01.533Z,69.95
2023-02-13T06:31:28.492Z,74.13
2023-02-13T06:33:55.419Z,78.70
2023-02-13T06:36:22.303Z,78.10
2023-02-13T06:38:49.130Z,112.75
2023-02-13T06:41:34.447Z,92.43
2023-02-13T06:44:01.316Z,102.28
2023-02-13T06:46:28.166Z,89.40
2023-02-13T06:48:54.994Z,76.63
2023-02-13T06:51:21.853Z,78.78
2023-02-13T06:53:48.644Z,77.45
2023-02-13T06:56:15.525Z,81.75
2023-02-13T06:58:42.359Z,82.10
2023-02-13T07:01:09.233Z,83.88
2023-02-13T07:03:36.167Z,91.07
2023-02-13T07:06:03.154Z,94.95
2023-02-13T07:08:30.925Z,91.07
2023-02-13T07:10:58.117Z,97.22
2023-02-13T07:13:25.187Z,96.88
2023-02-13T07:15:52.044Z,100.32
2023-02-13T07:18:18.954Z,103.75
2023-02-13T07:20:45.754Z,106.45
2023-02-13T07:23:12.665Z,112.13
2023-02-13T07:25:39.491Z,110.57
2023-02-13T07:28:07.150Z,111.50
2023-02-13T07:30:35.246Z,110.65
2023-02-13T07:33:03.440Z,107.70
2023-02-13T07:35:31.044Z,109.93
2023-02-13T07:37:57.965Z,106.60
2023-02-13T07:40:24.805Z,104.45
2023-02-13T07:42:51.601Z,116.88
2023-02-13T07:45:18.517Z,115.53
2023-02-13T07:47:45.376Z,109.50
2023-02-13T07:50:12.963Z,110.85
2023-02-13T07:52:40.069Z,116.80
2023-02-13T07:55:07.368Z,107.53
2023-02-13T07:57:34.440Z,106.32
2023-02-13T08:00:20.440Z,93.13
2023-02-13T08:02:47.560Z,85.40
2023-02-13T08:05:14.650Z,87.32
2023-02-13T08:07:41.508Z,81.53
2023-02-13T08:10:28.088Z,69.35
2023-02-13T08:12:55.242Z,70.28
2023-02-13T08:15:22.258Z,59.40
2023-02-13T08:17:49.118Z,57.10
2023-02-13T08:20:16.105Z,54.33
2023-02-13T08:22:42.943Z,57.53
2023-02-13T08:25:09.944Z,56.22
2023-02-13T08:27:37.011Z,56.53
2023-02-13T08:30:05.066Z,53.47
2023-02-13T08:32:54.267Z,46.10
2023-02-13T08:35:22.989Z,48.90
2023-02-13T08:37:49.860Z,42.70
2023-02-13T08:40:16.777Z,43.42
2023-02-13T08:43:02.391Z,44.72
2023-02-13T08:45:29.729Z,44.95
2023-02-13T08:48:00.432Z,45.60
2023-02-13T08:50:27.932Z,44.88
2023-02-13T08:52:54.813Z,43.83
2023-02-13T08:55:21.685Z,46.30
2023-02-13T08:57:48.528Z,44.35
2023-02-13T09:00:15.753Z,46.78
2023-02-13T09:02:42.641Z,45.33
2023-02-13T09:05:09.445Z,41.88
2023-02-13T09:07:36.736Z,48.50
2023-02-13T09:10:03.579Z,45.85
2023-02-13T09:12:30.413Z,48.03
2023-02-13T09:14:57.315Z,43.97
2023-02-13T09:17:24.090Z,45.38
2023-02-13T09:19:50.884Z,45.80
2023-02-13T09:22:18.592Z,42.05
2023-02-13T09:24:45.416Z,39.03
2023-02-13T09:27:12.210Z,36.25
2023-02-13T09:29:39.189Z,36.92
2023-02-13T09:32:07.215Z,29.85
2023-02-13T09:34:34.138Z,29.40
2023-02-13T09:37:01.047Z,29.23
2023-02-13T09:39:27.884Z,30.15
2023-02-13T09:41:55.920Z,27.10
2023-02-13T09:44:35.068Z,27.80
2023-02-13T09:47:10.381Z,27.63
2023-02-13T09:49:41.299Z,28.05
2023-02-13T09:52:09.860Z,26.95
2023-02-13T09:54:36.730Z,26.40
2023-02-13T09:57:15.779Z,26.70
2023-02-13T10:00:13.498Z,28.65
2023-02-13T10:02:58.570Z,28.95
2023-02-13T10:05:40.611Z,28.42
2023-02-13T10:08:46.515Z,35.63
2023-02-13T10:11:26.157Z,40.35
2023-02-13T10:14:28.353Z,30.95
2023-02-13T10:17:07.101Z,25.45
2023-02-13T10:19:36.913Z,27.92
2023-02-13T10:22:26.089Z,29.95
2023-02-13T10:24:57.901Z,26.88
2023-02-13T10:27:49.870Z,30.70
2023-02-13T10:30:21.549Z,23.33
2023-02-13T10:33:18.483Z,21.35
2023-02-13T10:35:53.616Z,20.35
2023-02-13T10:38:23.112Z,18.92
2023-02-13T10:41:23.102Z,23.52
2023-02-13T10:44:16.300Z,20.88
2023-02-13T10:47:12.630Z,20.50
2023-02-13T10:49:47.582Z,17.25
2023-02-13T10:52:36.525Z,16.40
2023-02-13T10:55:11.111Z,15.95
2023-02-13T10:58:07.333Z,15.68
2023-02-13T11:00:58.086Z,16.88
2023-02-13T11:03:27.334Z,15.25
2023-02-13T11:05:56.074Z,20.70
2023-02-13T11:08:33.155Z,23.30
2023-02-13T11:11:00.497Z,23.55
2023-02-13T11:13:30.231Z,16.77
2023-02-13T11:16:10.489Z,16.83
2023-02-13T11:18:41.894Z,20.95
2023-02-13T11:21:12.702Z,18.65
2023-02-13T11:23:39.612Z,14.77
2023-02-13T11:26:30.992Z,14.90
2023-02-13T11:29:06.334Z,15.00
2023-02-13T11:31:35.452Z,15.57
2023-02-13T11:34:29.597Z,21.50
2023-02-13T11:37:17.898Z,18.23
2023-02-13T11:39:50.192Z,17.48
2023-02-13T11:42:42.273Z,18.15
2023-02-13T11:45:29.337Z,18.35
2023-02-13T11:50:28.045Z,17.05
2023-02-13T11:53:01.496Z,25.20
2023-02-13T11:55:38.422Z,23.55
2023-02-13T11:58:25.398Z,17.65
2023-02-13T12:01:22.678Z,13.80
2023-02-13T12:04:18.936Z,14.90
2023-02-13T12:07:13.551Z,15.30
2023-02-13T12:09:41.514Z,15.52
2023-02-13T12:12:18.431Z,15.20
2023-02-13T12:14:46.636Z,13.80
2023-02-13T12:17:30.654Z,15.90
2023-02-13T12:19:59.536Z,15.45
2023-02-13T12:22:56.128Z,15.68
2023-02-13T12:25:49.671Z,27.98
2023-02-13T12:28:22.636Z,16.10
2023-02-13T12:31:09.367Z,19.10
2023-02-13T12:34:18.181Z,16.88
2023-02-13T12:36:57.172Z,15.40
2023-02-13T12:39:38.327Z,15.75
2023-02-13T12:42:32.649Z,16.58
2023-02-13T12:45:13.608Z,21.08
2023-02-13T12:48:09.439Z,19.25
2023-02-13T12:50:59.351Z,15.75
2023-02-13T12:53:31.986Z,16.40
2023-02-13T12:56:28.216Z,22.58
2023-02-13T12:59:08.211Z,16.55
2023-02-13T13:01:53.116Z,16.45
2023-02-13T13:04:34.324Z,13.98
2023-02-13T13:07:42.877Z,15.73
2023-02-13T13:10:31.197Z,16.27
2023-02-13T13:13:36.363Z,19.08
2023-02-13T13:16:27.214Z,16.23
2023-02-13T13:19:12.924Z,19.33
2023-02-13T13:21:54.162Z,21.75
2023-02-13T13:24:26.520Z,16.63
2023-02-13T13:26:57.506Z,17.13
2023-02-13T13:29:41.158Z,17.40
2023-02-13T13:32:12.244Z,16.88
2023-02-13T13:34:39.887Z,16.05
2023-02-13T13:37:18.649Z,16.20
2023-02-13T13:40:24.790Z,17.85
2023-02-13T13:42:59.737Z,16.92
2023-02-13T13:45:45.433Z,18.65
2023-02-13T13:48:30.204Z,18.55
2023-02-13T13:50:57.869Z,17.98
2023-02-13T13:53:25.660Z,20.02
2023-02-13T13:56:09.620Z,18.52
2023-02-13T13:58:41.185Z,14.80
2023-02-13T14:01:30.897Z,14.70
2023-02-13T14:04:01.267Z,14.30
2023-02-13T14:06:48.307Z,14.55
2023-02-13T14:11:56.783Z,16.25
2023-02-13T14:14:30.696Z,13.52
2023-02-13T14:17:00.000Z,13.98
2023-02-13T14:19:34.460Z,16.20
2023-02-13T14:22:20.128Z,15.00
2023-02-13T14:25:07.914Z,15.30
2023-02-13T14:27:41.577Z,14.50
2023-02-13T14:30:34.314Z,22.80
2023-02-13T14:33:06.202Z,31.45
2023-02-13T14:35:37.557Z,26.35
2023-02-13T14:38:22.102Z,21.55
2023-02-13T14:40:51.800Z,21.20
2023-02-13T14:43:30.060Z,18.13
2023-02-13T14:46:12.372Z,17.35
2023-02-13T14:48:51.360Z,17.65
2023-02-13T14:51:28.899Z,23.52
2023-02-13T14:54:01.730Z,22.08
2023-02-13T14:56:30.746Z,22.40
2023-02-13T14:59:12.827Z,24.52
2023-02-13T15:01:53.166Z,24.17
2023-02-13T15:04:31.995Z,26.38
2023-02-13T15:07:01.636Z,28.42
2023-02-13T15:09:50.363Z,28.00
2023-02-13T15:12:32.161Z,23.30
2023-02-13T15:15:03.685Z,25.20
2023-02-13T15:17:39.034Z,24.48
2023-02-13T15:20:25.157Z,21.90
2023-02-13T15:22:52.977Z,23.77
2023-02-13T15:25:34.197Z,26.52
2023-02-13T15:28:05.247Z,23.95
2023-02-13T15:30:36.450Z,23.83
2023-02-13T15:33:17.733Z,26.83
2023-02-13T15:35:45.708Z,25.77
2023-02-13T15:38:32.185Z,27.88
2023-02-13T15:41:05.125Z,28.75
2023-02-13T15:43:39.123Z,29.25
2023-02-13T15:46:18.747Z,28.75
2023-02-13T15:48:46.712Z,29.00
2023-02-13T15:51:21.293Z,29.17
2023-02-13T15:54:28.152Z,29.55
2023-02-13T15:56:59.410Z,32.85
2023-02-13T15:59:31.892Z,34.47
2023-02-13T16:02:01.472Z,33.60
2023-02-13T16:04:29.087Z,35.90
2023-02-13T16:07:15.501Z,35.78
2023-02-13T16:09:42.497Z,38.25
2023-02-13T16:12:25.982Z,36.90
2023-02-13T16:15:02.516Z,36.25
2023-02-13T16:17:36.725Z,45.00
2023-02-13T16:20:18.707Z,47.53
2023-02-13T16:23:21.055Z,49.50
2023-02-13T16:25:49.381Z,52.88
2023-02-13T16:28:24.353Z,50.22
2023-02-13T16:30:58.379Z,50.33
2023-02-13T16:33:43.125Z,50.90
2023-02-13T16:36:09.983Z,51.15
2023-02-13T16:38:43.985Z,50.05
2023-02-13T16:41:19.938Z,49.28
2023-02-13T16:43:56.822Z,50.78
2023-02-13T16:46:29.606Z,51.55
2023-02-13T16:48:56.447Z,48.80
2023-02-13T16:51:42.544Z,51.28
2023-02-13T16:54:12.383Z,49.83
2023-02-13T16:56:44.363Z,49.92
2023-02-13T16:59:11.093Z,49.95
2023-02-13T17:01:38.388Z,48.50
2023-02-13T17:04:24.045Z,46.42
2023-02-13T17:06:57.498Z,47.95
2023-02-13T17:09:24.288Z,45.55
2023-02-13T17:11:53.798Z,41.63
2023-02-13T17:14:21.116Z,44.28
2023-02-13T17:16:48.842Z,45.30
2023-02-13T17:19:15.718Z,43.80
2023-02-13T17:22:01.406Z,46.75
2023-02-13T17:24:28.309Z,43.40
2023-02-13T17:26:55.410Z,44.10
2023-02-13T17:29:22.328Z,40.35
2023-02-13T17:31:54.955Z,44.13
2023-02-13T17:34:21.858Z,42.15
2023-02-13T17:36:48.729Z,43.33
2023-02-13T17:39:15.765Z,55.55
2023-02-13T17:41:44.236Z,71.70
2023-02-13T17:44:14.357Z,73.68
2023-02-13T17:46:41.433Z,74.55
2023-02-13T17:49:08.339Z,64.50
2023-02-13T17:51:39.555Z,49.58
2023-02-13T17:54:25.402Z,37.72
2023-02-13T17:56:52.261Z,39.92
2023-02-13T17:59:19.149Z,46.80
2023-02-13T18:01:46.188Z,42.75
2023-02-13T18:04:13.156Z,48.60
2023-02-13T18:06:39.965Z,54.40
2023-02-13T18:09:06.935Z,59.30
2023-02-13T18:11:33.719Z,65.45
2023-02-13T18:14:02.271Z,61.33
2023-02-13T18:16:29.594Z,61.83
2023-02-13T18:18:56.857Z,64.40
2023-02-13T18:21:24.010Z,65.05
2023-02-13T18:23:53.825Z,68.22
2023-02-13T18:26:20.741Z,79.47
2023-02-13T18:28:52.245Z,74.60
2023-02-13T18:31:19.969Z,76.22
2023-02-13T18:33:47.436Z,78.25
2023-02-13T18:36:14.250Z,76.88
2023-02-13T18:38:41.074Z,78.78
2023-02-13T18:41:07.941Z,81.95
2023-02-13T18:43:34.980Z,90.78
2023-02-13T18:46:01.992Z,102.82
2023-02-13T18:48:29.670Z,94.93
2023-02-13T18:51:00.063Z,104.55
2023-02-13T18:53:27.957Z,104.40
2023-02-13T18:56:23.271Z,115.63
2023-02-13T18:58:50.577Z,128.57
2023-02-13T19:01:20.236Z,119.40
2023-02-13T19:03:48.577Z,101.47
2023-02-13T19:06:21.389Z,89.50
2023-02-13T19:08:48.296Z,83.72
2023-02-13T19:11:20.700Z,84.05
2023-02-13T19:13:47.739Z,88.28
2023-02-13T19:16:17.698Z,82.57
2023-02-13T19:18:47.774Z,89.80
2023-02-13T19:21:15.790Z,96.22
2023-02-13T19:23:42.726Z,95.60
2023-02-13T19:26:15.183Z,97.63
2023-02-13T19:28:42.870Z,99.35
2023-02-13T19:31:12.889Z,97.93
2023-02-13T19:33:40.017Z,106.30
2023-02-13T19:36:09.991Z,105.57
2023-02-13T19:38:37.037Z,104.88
2023-02-13T19:41:05.155Z,107.45
2023-02-13T19:43:32.200Z,109.63
2023-02-13T19:46:13.086Z,113.60
2023-02-13T19:48:40.786Z,118.05
2023-02-13T19:51:12.865Z,134.07
2023-02-13T19:53:39.739Z,134.00
2023-02-13T19:56:08.019Z,132.77
2023-02-13T19:58:38.201Z,136.13
2023-02-13T20:01:13.773Z,148.57
2023-02-13T20:03:41.925Z,144.32
2023-02-13T20:06:23.115Z,145.00
2023-02-13T20:08:50.612Z,150.15
2023-02-13T20:11:18.740Z,152.23
2023-02-13T20:13:45.779Z,148.13
2023-02-13T20:16:15.125Z,151.85
2023-02-13T20:18:42.901Z,147.07
2023-02-13T20:21:13.429Z,155.00
2023-02-13T20:23:41.266Z,151.05
2023-02-13T20:26:14.125Z,152.20
2023-02-13T20:28:42.608Z,152.63
2023-02-13T20:31:29.549Z,157.15
2023-02-13T20:36:27.502Z,154.35
2023-02-13T20:38:57.313Z,153.05
2023-02-13T20:41:26.968Z,157.77
2023-02-13T20:43:58.843Z,155.65
2023-02-13T20:46:26.186Z,155.52
2023-02-13T20:48:53.096Z,156.20
2023-02-13T20:51:20.335Z,152.85
2023-02-13T20:53:47.276Z,147.20
2023-02-13T20:56:20.866Z,143.77
2023-02-13T20:58:49.845Z,145.68
2023-02-13T21:01:20.249Z,140.80
2023-02-13T21:03:53.591Z,136.95
2023-02-13T21:06:25.870Z,140.65
2023-02-13T21:08:52.835Z,139.32
2023-02-13T21:11:21.416Z,134.20
2023-02-13T21:13:49.142Z,130.95
2023-02-13T21:16:21.972Z,135.10
2023-02-13T21:18:50.882Z,134.57
2023-02-13T21:21:19.101Z,129.48
2023-02-13T21:23:46.132Z,132.10
2023-02-13T21:26:16.203Z,127.68
2023-02-13T21:28:46.191Z,125.55
2023-02-13T21:31:30.689Z,129.10
2023-02-13T21:34:20.238Z,131.93
2023-02-13T21:37:05.804Z,129.50
2023-02-13T21:39:32.623Z,131.57
2023-02-13T21:41:59.673Z,127.72
2023-02-13T21:44:26.721Z,123.10
2023-02-13T21:46:53.601Z,124.13
2023-02-13T21:49:20.482Z,121.25
2023-02-13T21:51:47.411Z,117.25
2023-02-13T21:54:15.008Z,106.97
2023-02-13T21:56:43.307Z,100.75
2023-02-13T21:59:15.278Z,104.93
2023-02-13T22:01:42.239Z,115.32
2023-02-13T22:04:09.858Z,120.38
2023-02-13T22:06:39.572Z,113.18
2023-02-13T22:09:12.324Z,119.25
2023-02-13T22:11:40.045Z,117.32
2023-02-13T22:14:13.941Z,116.85
2023-02-13T22:16:42.665Z,114.72
2023-02-13T22:19:12.668Z,118.35
2023-02-13T22:21:39.621Z,117.90
2023-02-13T22:24:06.715Z,115.72
2023-02-13T22:26:36.791Z,116.95
2023-02-13T22:29:07.814Z,120.80
2023-02-13T22:31:35.573Z,116.90
2023-02-13T22:34:05.045Z,116.65
2023-02-13T22:36:40.493Z,117.50
2023-02-13T22:39:08.906Z,116.78
2023-02-13T22:41:35.853Z,119.15
2023-02-13T22:44:02.877Z,116.50
2023-02-13T22:46:31.544Z,118.50
2023-02-13T22:48:59.594Z,115.82
2023-02-13T22:51:34.330Z,114.88
2023-02-13T22:54:01.884Z,110.57
2023-02-13T22:56:30.714Z,100.25
2023-02-13T22:58:58.142Z,108.78
2023-02-13T23:01:26.838Z,109.57
2023-02-13T23:03:54.932Z,99.68
2023-02-13T23:06:22.313Z,98.57
2023-02-13T23:08:52.631Z,96.07
2023-02-13T23:11:40.408Z,97.53
2023-02-13T23:14:07.371Z,94.78
2023-02-13T23:16:54.247Z,89.03
2023-02-13T23:19:22.057Z,88.22
2023-02-13T23:21:49.217Z,84.63
2023-02-13T23:24:16.187Z,73.95
2023-02-13T23:26:43.069Z,62.70
2023-02-13T23:29:10.382Z,57.60
2023-02-13T23:31:37.308Z,57.92
2023-02-13T23:34:04.837Z,69.50
2023-02-13T23:36:31.613Z,94.35
2023-02-13T23:38:58.574Z,136.65
2023-02-13T23:41:25.512Z,138.48
2023-02-13T23:43:52.306Z,127.72
2023-02-13T23:46:19.372Z,128.27
2023-02-13T23:48:46.846Z,130.77
2023-02-13T23:51:13.740Z,123.70
2023-02-13T23:53:40.684Z,119.43
2023-02-13T23:56:08.009Z,120.13
2023-02-13T23:58:35.108Z,107.97
